Andrus Island, California
Current Conditions -  °F | °C
As of 8:23 PM on Thursday 27 Nov 2014 (Local Time) from KSUU Reporting Station
Haze Haze  
Wind Chill:   Ceiling: Unl
Heat Index:   Visibility: 2.5mi
Dew Point:   Wind: 3mph
Humidity: 100%   Direction: 290°WNW
Pressure: 30.06"   Gusts: NA
Location:  38.1457°N, 121.624°W
Report Text: KSUU 280423Z AUTO 29003KT 2 1/2SM BR CLR 07/07 A3006 RMK AO2 VIS 2V3 $
Loading
Personal Weather Stations






























Interactive Weather Map New forecast layout! Learn more

10-Day Weather Forecast

Advertisements
Track Severe Weather on mobile